sensor_id;sensor_type;location;lat;lon;timestamp;temperature;humidity
36594;DHT22;22603;47.900;8.146;2024-03-25T00:00:04;1.10;99.90
36594;DHT22;22603;47.900;8.146;2024-03-25T00:02:48;1.10;99.90
36594;DHT22;22603;47.900;8.146;2024-03-25T00:05:36;1.10;99.90
36594;DHT22;22603;47.900;8.146;2024-03-25T00:08:21;1.00;99.90
36594;DHT22;22603;47.900;8.146;2024-03-25T00:11:07;1.00;99.90
36594;DHT22;22603;47.900;8.146;2024-03-25T00:13:51;1.00;99.90
36594;DHT22;22603;47.900;8.146;2024-03-25T00:16:38;1.00;99.90
36594;DHT22;22603;47.900;8.146;2024-03-25T00:19:22;0.90;99.90
36594;DHT22;22603;47.900;8.146;2024-03-25T00:22:09;0.90;99.90
36594;DHT22;22603;47.900;8.146;2024-03-25T00:24:54;1.00;99.90
36594;DHT22;22603;47.900;8.146;2024-03-25T00:27:40;1.10;99.90
36594;DHT22;22603;47.900;8.146;2024-03-25T00:30:25;1.10;99.90
36594;DHT22;22603;47.900;8.146;2024-03-25T00:33:11;1.10;99.90
36594;DHT22;22603;47.900;8.146;2024-03-25T00:35:56;1.10;99.90
36594;DHT22;22603;47.900;8.146;2024-03-25T00:38:43;1.10;99.90
36594;DHT22;22603;47.900;8.146;2024-03-25T00:41:28;1.00;99.90
36594;DHT22;22603;47.900;8.146;2024-03-25T00:44:14;1.00;99.90
36594;DHT22;22603;47.900;8.146;2024-03-25T00:46:58;1.00;99.90
36594;DHT22;22603;47.900;8.146;2024-03-25T00:49:44;1.00;99.90
36594;DHT22;22603;47.900;8.146;2024-03-25T00:52:29;1.00;99.90
36594;DHT22;22603;47.900;8.146;2024-03-25T00:55:16;1.00;99.90
36594;DHT22;22603;47.900;8.146;2024-03-25T00:58:01;0.90;99.90
36594;DHT22;22603;47.900;8.146;2024-03-25T01:00:48;0.90;99.90
36594;DHT22;22603;47.900;8.146;2024-03-25T01:03:33;0.80;99.90
36594;DHT22;22603;47.900;8.146;2024-03-25T01:06:19;0.70;99.90
36594;DHT22;22603;47.900;8.146;2024-03-25T01:09:04;0.60;99.90
36594;DHT22;22603;47.900;8.146;2024-03-25T01:11:52;0.50;99.90
36594;DHT22;22603;47.900;8.146;2024-03-25T01:14:37;0.40;99.90
36594;DHT22;22603;47.900;8.146;2024-03-25T01:17:23;0.40;99.90
36594;DHT22;22603;47.900;8.146;2024-03-25T01:20:09;0.30;99.90
36594;DHT22;22603;47.900;8.146;2024-03-25T01:22:55;0.30;99.90
36594;DHT22;22603;47.900;8.146;2024-03-25T01:25:39;0.30;99.90
36594;DHT22;22603;47.900;8.146;2024-03-25T01:28:26;0.10;99.90
36594;DHT22;22603;47.900;8.146;2024-03-25T01:31:11;0.10;99.90
36594;DHT22;22603;47.900;8.146;2024-03-25T01:33:57;0.00;99.90
36594;DHT22;22603;47.900;8.146;2024-03-25T01:36:42;0.00;99.90
36594;DHT22;22603;47.900;8.146;2024-03-25T01:39:28;-0.10;99.90
36594;DHT22;22603;47.900;8.146;2024-03-25T01:42:13;-0.10;99.90
36594;DHT22;22603;47.900;8.146;2024-03-25T01:45:01;-0.20;99.90
36594;DHT22;22603;47.900;8.146;2024-03-25T01:47:47;-0.20;99.90
36594;DHT22;22603;47.900;8.146;2024-03-25T01:50:35;-0.20;99.90
36594;DHT22;22603;47.900;8.146;2024-03-25T01:53:21;-0.30;99.90
36594;DHT22;22603;47.900;8.146;2024-03-25T01:56:07;-0.40;99.90
36594;DHT22;22603;47.900;8.146;2024-03-25T01:58:52;-0.30;99.90
36594;DHT22;22603;47.900;8.146;2024-03-25T02:01:40;-0.40;99.90
36594;DHT22;22603;47.900;8.146;2024-03-25T02:04:25;-0.50;99.90
36594;DHT22;22603;47.900;8.146;2024-03-25T02:07:12;-0.50;99.90
36594;DHT22;22603;47.900;8.146;2024-03-25T02:09:58;-0.60;99.90
36594;DHT22;22603;47.900;8.146;2024-03-25T02:12:45;-0.60;99.90
36594;DHT22;22603;47.900;8.146;2024-03-25T02:15:30;-0.40;99.90
36594;DHT22;22603;47.900;8.146;2024-03-25T02:18:17;-0.50;99.90
36594;DHT22;22603;47.900;8.146;2024-03-25T02:21:02;-0.50;99.90
36594;DHT22;22603;47.900;8.146;2024-03-25T02:23:53;-0.50;99.90
36594;DHT22;22603;47.900;8.146;2024-03-25T02:26:43;-0.50;99.90
36594;DHT22;22603;47.900;8.146;2024-03-25T02:29:33;-0.40;99.90
36594;DHT22;22603;47.900;8.146;2024-03-25T02:32:18;-0.50;99.90
36594;DHT22;22603;47.900;8.146;2024-03-25T02:35:05;-0.60;99.90
36594;DHT22;22603;47.900;8.146;2024-03-25T02:37:51;-0.60;99.90
36594;DHT22;22603;47.900;8.146;2024-03-25T02:40:38;-0.60;99.90
36594;DHT22;22603;47.900;8.146;2024-03-25T02:43:24;-0.50;99.90
36594;DHT22;22603;47.900;8.146;2024-03-25T02:46:11;-0.50;99.90
36594;DHT22;22603;47.900;8.146;2024-03-25T02:48:56;-0.60;99.90
36594;DHT22;22603;47.900;8.146;2024-03-25T02:51:42;-0.50;99.90
36594;DHT22;22603;47.900;8.146;2024-03-25T02:54:27;-0.60;99.90
36594;DHT22;22603;47.900;8.146;2024-03-25T02:57:13;-0.60;99.90
36594;DHT22;22603;47.900;8.146;2024-03-25T02:59:59;-0.60;99.90
36594;DHT22;22603;47.900;8.146;2024-03-25T03:02:45;-0.60;99.90
36594;DHT22;22603;47.900;8.146;2024-03-25T03:05:30;-0.60;99.90
36594;DHT22;22603;47.900;8.146;2024-03-25T03:08:15;-0.60;99.90
36594;DHT22;22603;47.900;8.146;2024-03-25T03:11:00;-0.60;99.90
36594;DHT22;22603;47.900;8.146;2024-03-25T03:13:46;-0.60;99.90
36594;DHT22;22603;47.900;8.146;2024-03-25T03:16:33;-0.60;99.90
36594;DHT22;22603;47.900;8.146;2024-03-25T03:19:18;-0.70;99.90
36594;DHT22;22603;47.900;8.146;2024-03-25T03:22:03;-0.70;99.90
36594;DHT22;22603;47.900;8.146;2024-03-25T03:24:49;-0.80;99.90
36594;DHT22;22603;47.900;8.146;2024-03-25T03:27:34;-0.80;99.90
36594;DHT22;22603;47.900;8.146;2024-03-25T03:30:19;-0.80;99.90
36594;DHT22;22603;47.900;8.146;2024-03-25T03:33:07;-0.80;99.90
36594;DHT22;22603;47.900;8.146;2024-03-25T03:35:52;-0.80;99.90
36594;DHT22;22603;47.900;8.146;2024-03-25T03:38:37;-0.80;99.90
36594;DHT22;22603;47.900;8.146;2024-03-25T03:41:23;-0.80;99.90
36594;DHT22;22603;47.900;8.146;2024-03-25T03:44:08;-0.80;99.90
36594;DHT22;22603;47.900;8.146;2024-03-25T03:46:54;-0.90;99.90
36594;DHT22;22603;47.900;8.146;2024-03-25T03:49:40;-0.80;99.90
36594;DHT22;22603;47.900;8.146;2024-03-25T03:52:26;-0.80;99.90
36594;DHT22;22603;47.900;8.146;2024-03-25T03:55:11;-0.80;99.90
36594;DHT22;22603;47.900;8.146;2024-03-25T03:57:57;-0.90;99.90
36594;DHT22;22603;47.900;8.146;2024-03-25T04:00:41;-0.90;99.90
36594;DHT22;22603;47.900;8.146;2024-03-25T04:03:27;-0.90;99.90
36594;DHT22;22603;47.900;8.146;2024-03-25T04:06:14;-0.90;99.90
36594;DHT22;22603;47.900;8.146;2024-03-25T04:09:00;-0.80;99.90
36594;DHT22;22603;47.900;8.146;2024-03-25T04:11:45;-0.90;99.90
36594;DHT22;22603;47.900;8.146;2024-03-25T04:14:30;-0.90;99.90
36594;DHT22;22603;47.900;8.146;2024-03-25T04:17:16;-0.90;99.90
36594;DHT22;22603;47.900;8.146;2024-03-25T04:20:02;-1.00;99.90
36594;DHT22;22603;47.900;8.146;2024-03-25T04:22:52;-1.10;99.90
36594;DHT22;22603;47.900;8.146;2024-03-25T04:25:38;-1.10;99.90
36594;DHT22;22603;47.900;8.146;2024-03-25T04:28:23;-1.20;99.90
36594;DHT22;22603;47.900;8.146;2024-03-25T04:31:08;-1.00;99.90
36594;DHT22;22603;47.900;8.146;2024-03-25T04:33:53;-1.30;99.90
36594;DHT22;22603;47.900;8.146;2024-03-25T04:36:39;-1.30;99.90
36594;DHT22;22603;47.900;8.146;2024-03-25T04:39:25;-1.40;99.90
36594;DHT22;22603;47.900;8.146;2024-03-25T04:42:10;-1.30;99.90
36594;DHT22;22603;47.900;8.146;2024-03-25T04:44:54;-1.40;99.90
36594;DHT22;22603;47.900;8.146;2024-03-25T04:47:39;-1.40;99.90
36594;DHT22;22603;47.900;8.146;2024-03-25T04:50:24;-1.40;99.90
36594;DHT22;22603;47.900;8.146;2024-03-25T04:53:09;-1.50;99.90
36594;DHT22;22603;47.900;8.146;2024-03-25T04:55:55;-1.50;99.90
36594;DHT22;22603;47.900;8.146;2024-03-25T04:58:40;-1.50;99.90
36594;DHT22;22603;47.900;8.146;2024-03-25T05:01:25;-1.50;99.90
36594;DHT22;22603;47.900;8.146;2024-03-25T05:04:10;-1.50;99.90
36594;DHT22;22603;47.900;8.146;2024-03-25T05:06:54;-1.60;99.90
36594;DHT22;22603;47.900;8.146;2024-03-25T05:09:39;-1.50;99.90
36594;DHT22;22603;47.900;8.146;2024-03-25T05:12:25;-1.50;99.90
36594;DHT22;22603;47.900;8.146;2024-03-25T05:15:10;-1.50;99.90
36594;DHT22;22603;47.900;8.146;2024-03-25T05:17:55;-1.60;99.90
36594;DHT22;22603;47.900;8.146;2024-03-25T05:20:40;-1.60;99.90
36594;DHT22;22603;47.900;8.146;2024-03-25T05:23:25;-1.70;99.90
36594;DHT22;22603;47.900;8.146;2024-03-25T05:26:10;-1.70;99.90
36594;DHT22;22603;47.900;8.146;2024-03-25T05:28:56;-1.70;99.90
36594;DHT22;22603;47.900;8.146;2024-03-25T05:31:56;-1.70;99.90
36594;DHT22;22603;47.900;8.146;2024-03-25T05:34:41;-1.80;99.90
36594;DHT22;22603;47.900;8.146;2024-03-25T05:37:25;-1.80;99.90
36594;DHT22;22603;47.900;8.146;2024-03-25T05:40:11;-1.80;99.90
36594;DHT22;22603;47.900;8.146;2024-03-25T05:42:55;-1.70;99.90
36594;DHT22;22603;47.900;8.146;2024-03-25T05:45:50;-1.70;99.90
36594;DHT22;22603;47.900;8.146;2024-03-25T05:48:35;-1.80;99.90
36594;DHT22;22603;47.900;8.146;2024-03-25T05:51:19;-1.80;99.90
36594;DHT22;22603;47.900;8.146;2024-03-25T05:54:04;-1.80;99.90
36594;DHT22;22603;47.900;8.146;2024-03-25T05:56:49;-1.80;99.90
36594;DHT22;22603;47.900;8.146;2024-03-25T05:59:34;-1.80;99.90
36594;DHT22;22603;47.900;8.146;2024-03-25T06:02:20;-1.90;99.90
36594;DHT22;22603;47.900;8.146;2024-03-25T06:05:05;-1.80;99.90
36594;DHT22;22603;47.900;8.146;2024-03-25T06:07:50;-1.70;99.90
36594;DHT22;22603;47.900;8.146;2024-03-25T06:10:36;-1.60;99.90
36594;DHT22;22603;47.900;8.146;2024-03-25T06:13:21;-1.50;99.90
36594;DHT22;22603;47.900;8.146;2024-03-25T06:16:06;-1.40;99.90
36594;DHT22;22603;47.900;8.146;2024-03-25T06:18:52;-1.40;99.90
36594;DHT22;22603;47.900;8.146;2024-03-25T06:21:37;-1.40;99.90
36594;DHT22;22603;47.900;8.146;2024-03-25T06:24:22;-1.30;99.90
36594;DHT22;22603;47.900;8.146;2024-03-25T06:27:06;-1.20;99.90
36594;DHT22;22603;47.900;8.146;2024-03-25T06:29:51;-1.20;99.90
36594;DHT22;22603;47.900;8.146;2024-03-25T06:32:37;-1.10;99.90
36594;DHT22;22603;47.900;8.146;2024-03-25T06:35:42;-1.10;99.90
36594;DHT22;22603;47.900;8.146;2024-03-25T06:38:27;-1.10;99.90
36594;DHT22;22603;47.900;8.146;2024-03-25T06:41:12;-1.10;99.90
36594;DHT22;22603;47.900;8.146;2024-03-25T06:43:57;-1.00;99.90
36594;DHT22;22603;47.900;8.146;2024-03-25T06:46:41;-0.90;99.90
36594;DHT22;22603;47.900;8.146;2024-03-25T06:49:26;-0.80;99.90
36594;DHT22;22603;47.900;8.146;2024-03-25T06:52:12;-0.60;99.90
36594;DHT22;22603;47.900;8.146;2024-03-25T06:54:57;-0.40;99.90
36594;DHT22;22603;47.900;8.146;2024-03-25T06:57:42;0.20;99.90
36594;DHT22;22603;47.900;8.146;2024-03-25T07:00:26;1.30;99.90
36594;DHT22;22603;47.900;8.146;2024-03-25T07:03:11;2.60;99.90
36594;DHT22;22603;47.900;8.146;2024-03-25T07:05:56;3.70;99.90
36594;DHT22;22603;47.900;8.146;2024-03-25T07:08:42;4.60;99.90
36594;DHT22;22603;47.900;8.146;2024-03-25T07:11:27;5.10;99.90
36594;DHT22;22603;47.900;8.146;2024-03-25T07:14:11;5.20;99.90
36594;DHT22;22603;47.900;8.146;2024-03-25T07:16:56;5.80;99.90
36594;DHT22;22603;47.900;8.146;2024-03-25T07:19:40;6.90;99.90
36594;DHT22;22603;47.900;8.146;2024-03-25T07:22:25;7.50;99.90
36594;DHT22;22603;47.900;8.146;2024-03-25T07:25:11;7.30;99.90
36594;DHT22;22603;47.900;8.146;2024-03-25T07:27:56;7.60;99.90
36594;DHT22;22603;47.900;8.146;2024-03-25T07:30:42;8.10;99.90
36594;DHT22;22603;47.900;8.146;2024-03-25T07:33:26;8.80;99.90
36594;DHT22;22603;47.900;8.146;2024-03-25T07:36:11;8.70;99.90
36594;DHT22;22603;47.900;8.146;2024-03-25T07:38:56;8.90;99.90
36594;DHT22;22603;47.900;8.146;2024-03-25T07:41:43;9.40;99.90
36594;DHT22;22603;47.900;8.146;2024-03-25T07:44:27;10.10;99.90
36594;DHT22;22603;47.900;8.146;2024-03-25T07:47:12;10.90;99.90
36594;DHT22;22603;47.900;8.146;2024-03-25T07:49:57;10.40;99.90
36594;DHT22;22603;47.900;8.146;2024-03-25T07:52:41;10.00;99.90
36594;DHT22;22603;47.900;8.146;2024-03-25T07:55:26;10.60;99.90
36594;DHT22;22603;47.900;8.146;2024-03-25T07:58:12;11.00;99.90
36594;DHT22;22603;47.900;8.146;2024-03-25T08:00:57;11.20;99.90
36594;DHT22;22603;47.900;8.146;2024-03-25T08:03:42;11.10;99.90
36594;DHT22;22603;47.900;8.146;2024-03-25T08:06:26;10.30;99.90
36594;DHT22;22603;47.900;8.146;2024-03-25T08:09:11;9.80;99.90
36594;DHT22;22603;47.900;8.146;2024-03-25T08:11:56;10.10;99.90
36594;DHT22;22603;47.900;8.146;2024-03-25T08:14:42;11.30;99.90
36594;DHT22;22603;47.900;8.146;2024-03-25T08:17:28;11.60;99.90
36594;DHT22;22603;47.900;8.146;2024-03-25T08:20:12;12.90;99.90
36594;DHT22;22603;47.900;8.146;2024-03-25T08:22:57;13.70;99.90
36594;DHT22;22603;47.900;8.146;2024-03-25T08:25:42;14.00;99.90
36594;DHT22;22603;47.900;8.146;2024-03-25T08:28:26;14.50;99.90
36594;DHT22;22603;47.900;8.146;2024-03-25T08:31:13;14.60;99.90
36594;DHT22;22603;47.900;8.146;2024-03-25T08:33:57;13.90;99.90
36594;DHT22;22603;47.900;8.146;2024-03-25T08:36:42;13.50;99.90
36594;DHT22;22603;47.900;8.146;2024-03-25T08:39:27;13.50;99.90
36594;DHT22;22603;47.900;8.146;2024-03-25T08:42:12;13.60;99.90
36594;DHT22;22603;47.900;8.146;2024-03-25T08:44:56;13.00;99.90
36594;DHT22;22603;47.900;8.146;2024-03-25T08:47:42;13.20;99.90
36594;DHT22;22603;47.900;8.146;2024-03-25T08:50:27;12.50;99.90
36594;DHT22;22603;47.900;8.146;2024-03-25T08:53:12;12.30;99.90
36594;DHT22;22603;47.900;8.146;2024-03-25T08:55:57;12.60;99.90
36594;DHT22;22603;47.900;8.146;2024-03-25T08:58:42;12.60;99.90
36594;DHT22;22603;47.900;8.146;2024-03-25T09:01:27;12.50;99.90
36594;DHT22;22603;47.900;8.146;2024-03-25T09:04:13;12.60;99.90
36594;DHT22;22603;47.900;8.146;2024-03-25T09:06:58;12.70;99.90
36594;DHT22;22603;47.900;8.146;2024-03-25T09:09:43;12.50;99.90
36594;DHT22;22603;47.900;8.146;2024-03-25T09:12:48;13.40;99.90
36594;DHT22;22603;47.900;8.146;2024-03-25T09:15:33;14.00;99.90
36594;DHT22;22603;47.900;8.146;2024-03-25T09:18:18;13.20;99.90
36594;DHT22;22603;47.900;8.146;2024-03-25T09:21:05;13.40;99.90
36594;DHT22;22603;47.900;8.146;2024-03-25T09:23:50;13.00;99.90
36594;DHT22;22603;47.900;8.146;2024-03-25T09:26:35;12.10;99.90
36594;DHT22;22603;47.900;8.146;2024-03-25T09:29:20;12.70;99.90
36594;DHT22;22603;47.900;8.146;2024-03-25T09:32:05;13.00;99.90
36594;DHT22;22603;47.900;8.146;2024-03-25T09:34:50;13.50;99.90
36594;DHT22;22603;47.900;8.146;2024-03-25T09:37:36;13.50;99.90
36594;DHT22;22603;47.900;8.146;2024-03-25T09:40:21;13.00;99.90
36594;DHT22;22603;47.900;8.146;2024-03-25T09:43:12;13.60;99.90
36594;DHT22;22603;47.900;8.146;2024-03-25T09:45:57;12.70;99.90
36594;DHT22;22603;47.900;8.146;2024-03-25T09:48:42;13.00;99.90
36594;DHT22;22603;47.900;8.146;2024-03-25T09:51:27;12.50;99.90
36594;DHT22;22603;47.900;8.146;2024-03-25T09:54:13;11.50;99.90
36594;DHT22;22603;47.900;8.146;2024-03-25T09:57:00;12.20;99.90
36594;DHT22;22603;47.900;8.146;2024-03-25T09:59:45;13.50;99.90
36594;DHT22;22603;47.900;8.146;2024-03-25T10:02:30;13.80;99.90
36594;DHT22;22603;47.900;8.146;2024-03-25T10:05:16;13.60;99.90
36594;DHT22;22603;47.900;8.146;2024-03-25T10:08:01;13.70;99.90
36594;DHT22;22603;47.900;8.146;2024-03-25T10:10:50;13.10;99.90
36594;DHT22;22603;47.900;8.146;2024-03-25T10:13:35;13.50;99.90
36594;DHT22;22603;47.900;8.146;2024-03-25T10:16:20;13.30;99.90
36594;DHT22;22603;47.900;8.146;2024-03-25T10:19:06;13.70;99.90
36594;DHT22;22603;47.900;8.146;2024-03-25T10:22:01;12.90;99.90
36594;DHT22;22603;47.900;8.146;2024-03-25T10:24:46;12.60;99.90
36594;DHT22;22603;47.900;8.146;2024-03-25T10:27:33;13.10;99.90
36594;DHT22;22603;47.900;8.146;2024-03-25T10:30:19;12.30;99.90
36594;DHT22;22603;47.900;8.146;2024-03-25T10:33:05;13.30;99.90
36594;DHT22;22603;47.900;8.146;2024-03-25T10:35:52;13.60;99.90
36594;DHT22;22603;47.900;8.146;2024-03-25T10:38:37;13.10;99.90
36594;DHT22;22603;47.900;8.146;2024-03-25T10:41:23;13.00;99.90
36594;DHT22;22603;47.900;8.146;2024-03-25T10:44:09;13.00;99.90
36594;DHT22;22603;47.900;8.146;2024-03-25T10:46:58;12.70;99.90
36594;DHT22;22603;47.900;8.146;2024-03-25T10:49:48;13.40;99.90
36594;DHT22;22603;47.900;8.146;2024-03-25T10:52:33;11.40;99.90
36594;DHT22;22603;47.900;8.146;2024-03-25T10:55:19;12.10;99.90
36594;DHT22;22603;47.900;8.146;2024-03-25T10:58:04;13.00;99.90
36594;DHT22;22603;47.900;8.146;2024-03-25T11:00:52;13.50;99.90
36594;DHT22;22603;47.900;8.146;2024-03-25T11:03:37;13.50;99.90
36594;DHT22;22603;47.900;8.146;2024-03-25T11:06:22;13.40;99.90
36594;DHT22;22603;47.900;8.146;2024-03-25T11:09:07;13.20;99.90
36594;DHT22;22603;47.900;8.146;2024-03-25T11:11:52;12.20;99.90
36594;DHT22;22603;47.900;8.146;2024-03-25T11:14:38;10.50;99.90
36594;DHT22;22603;47.900;8.146;2024-03-25T11:17:24;11.80;99.90
36594;DHT22;22603;47.900;8.146;2024-03-25T11:20:10;13.20;99.90
36594;DHT22;22603;47.900;8.146;2024-03-25T11:22:55;12.80;99.90
36594;DHT22;22603;47.900;8.146;2024-03-25T11:25:41;10.80;99.90
36594;DHT22;22603;47.900;8.146;2024-03-25T11:28:27;10.00;99.90
36594;DHT22;22603;47.900;8.146;2024-03-25T11:31:12;10.30;99.90
36594;DHT22;22603;47.900;8.146;2024-03-25T11:34:03;11.60;99.90
36594;DHT22;22603;47.900;8.146;2024-03-25T11:36:48;11.70;99.90
36594;DHT22;22603;47.900;8.146;2024-03-25T11:39:33;12.50;99.90
36594;DHT22;22603;47.900;8.146;2024-03-25T11:42:18;12.00;99.90
36594;DHT22;22603;47.900;8.146;2024-03-25T11:45:03;11.60;99.90
36594;DHT22;22603;47.900;8.146;2024-03-25T11:47:49;10.80;99.90
36594;DHT22;22603;47.900;8.146;2024-03-25T11:50:36;11.90;99.90
36594;DHT22;22603;47.900;8.146;2024-03-25T11:53:20;12.00;99.90
36594;DHT22;22603;47.900;8.146;2024-03-25T11:56:06;12.60;99.90
36594;DHT22;22603;47.900;8.146;2024-03-25T11:58:50;13.50;99.90
36594;DHT22;22603;47.900;8.146;2024-03-25T12:01:36;11.40;99.90
36594;DHT22;22603;47.900;8.146;2024-03-25T12:04:21;12.00;99.90
36594;DHT22;22603;47.900;8.146;2024-03-25T12:07:07;12.50;99.90
36594;DHT22;22603;47.900;8.146;2024-03-25T12:09:52;12.20;99.90
36594;DHT22;22603;47.900;8.146;2024-03-25T12:12:55;10.70;99.90
36594;DHT22;22603;47.900;8.146;2024-03-25T12:15:40;10.10;99.90
36594;DHT22;22603;47.900;8.146;2024-03-25T12:18:25;9.60;99.90
36594;DHT22;22603;47.900;8.146;2024-03-25T12:21:10;9.80;99.90
36594;DHT22;22603;47.900;8.146;2024-03-25T12:23:57;11.60;99.90
36594;DHT22;22603;47.900;8.146;2024-03-25T12:26:41;12.20;99.90
36594;DHT22;22603;47.900;8.146;2024-03-25T12:29:26;12.10;99.90
36594;DHT22;22603;47.900;8.146;2024-03-25T12:32:11;11.30;99.90
36594;DHT22;22603;47.900;8.146;2024-03-25T12:34:57;11.20;99.90
36594;DHT22;22603;47.900;8.146;2024-03-25T12:37:43;10.50;99.90
36594;DHT22;22603;47.900;8.146;2024-03-25T12:40:30;10.50;99.90
36594;DHT22;22603;47.900;8.146;2024-03-25T12:43:15;10.10;99.90
36594;DHT22;22603;47.900;8.146;2024-03-25T12:46:01;9.80;99.90
36594;DHT22;22603;47.900;8.146;2024-03-25T12:48:46;10.20;99.90
36594;DHT22;22603;47.900;8.146;2024-03-25T12:51:31;10.50;99.90
36594;DHT22;22603;47.900;8.146;2024-03-25T12:54:16;9.70;99.90
36594;DHT22;22603;47.900;8.146;2024-03-25T12:57:02;9.30;99.90
36594;DHT22;22603;47.900;8.146;2024-03-25T12:59:46;9.10;99.90
36594;DHT22;22603;47.900;8.146;2024-03-25T13:02:32;9.40;99.90
36594;DHT22;22603;47.900;8.146;2024-03-25T13:05:17;9.40;99.90
36594;DHT22;22603;47.900;8.146;2024-03-25T13:08:02;10.20;99.90
36594;DHT22;22603;47.900;8.146;2024-03-25T13:10:48;10.80;99.90
36594;DHT22;22603;47.900;8.146;2024-03-25T13:13:34;11.20;99.90
36594;DHT22;22603;47.900;8.146;2024-03-25T13:16:19;11.20;99.90
36594;DHT22;22603;47.900;8.146;2024-03-25T13:19:04;10.10;99.90
36594;DHT22;22603;47.900;8.146;2024-03-25T13:21:49;9.60;99.90
36594;DHT22;22603;47.900;8.146;2024-03-25T13:24:34;9.40;99.90
36594;DHT22;22603;47.900;8.146;2024-03-25T13:27:19;10.00;99.90
36594;DHT22;22603;47.900;8.146;2024-03-25T13:30:06;10.40;99.90
36594;DHT22;22603;47.900;8.146;2024-03-25T13:32:53;10.90;99.90
36594;DHT22;22603;47.900;8.146;2024-03-25T13:35:38;11.10;99.90
36594;DHT22;22603;47.900;8.146;2024-03-25T13:38:23;10.40;99.90
36594;DHT22;22603;47.900;8.146;2024-03-25T13:41:08;10.50;99.90
36594;DHT22;22603;47.900;8.146;2024-03-25T13:43:53;10.50;99.90
36594;DHT22;22603;47.900;8.146;2024-03-25T13:46:39;10.80;99.90
36594;DHT22;22603;47.900;8.146;2024-03-25T13:49:24;10.90;99.90
36594;DHT22;22603;47.900;8.146;2024-03-25T13:52:09;11.00;99.90
36594;DHT22;22603;47.900;8.146;2024-03-25T13:54:54;11.30;99.90
36594;DHT22;22603;47.900;8.146;2024-03-25T13:57:39;11.10;99.90
36594;DHT22;22603;47.900;8.146;2024-03-25T14:00:26;11.00;99.90
36594;DHT22;22603;47.900;8.146;2024-03-25T14:03:12;11.10;99.90
36594;DHT22;22603;47.900;8.146;2024-03-25T14:05:57;10.10;99.90
36594;DHT22;22603;47.900;8.146;2024-03-25T14:08:42;9.60;99.90
36594;DHT22;22603;47.900;8.146;2024-03-25T14:11:26;9.70;99.90
36594;DHT22;22603;47.900;8.146;2024-03-25T14:14:11;9.70;99.90
36594;DHT22;22603;47.900;8.146;2024-03-25T14:16:56;9.50;99.90
36594;DHT22;22603;47.900;8.146;2024-03-25T14:19:42;9.40;99.90
36594;DHT22;22603;47.900;8.146;2024-03-25T14:22:27;9.70;99.90
36594;DHT22;22603;47.900;8.146;2024-03-25T14:25:12;10.00;99.90
36594;DHT22;22603;47.900;8.146;2024-03-25T14:27:56;9.30;99.90
36594;DHT22;22603;47.900;8.146;2024-03-25T14:30:41;9.40;99.90
36594;DHT22;22603;47.900;8.146;2024-03-25T14:33:25;9.90;99.90
36594;DHT22;22603;47.900;8.146;2024-03-25T14:36:11;9.40;99.90
36594;DHT22;22603;47.900;8.146;2024-03-25T14:38:56;9.10;99.90
36594;DHT22;22603;47.900;8.146;2024-03-25T14:41:41;9.50;99.90
36594;DHT22;22603;47.900;8.146;2024-03-25T14:44:26;9.60;99.90
36594;DHT22;22603;47.900;8.146;2024-03-25T14:47:10;10.30;99.90
36594;DHT22;22603;47.900;8.146;2024-03-25T14:49:55;10.40;99.90
36594;DHT22;22603;47.900;8.146;2024-03-25T14:52:41;10.30;99.90
36594;DHT22;22603;47.900;8.146;2024-03-25T14:55:26;9.90;99.90
36594;DHT22;22603;47.900;8.146;2024-03-25T14:58:11;9.30;99.90
36594;DHT22;22603;47.900;8.146;2024-03-25T15:00:56;9.10;99.90
36594;DHT22;22603;47.900;8.146;2024-03-25T15:03:41;9.60;99.90
36594;DHT22;22603;47.900;8.146;2024-03-25T15:06:26;9.30;99.90
36594;DHT22;22603;47.900;8.146;2024-03-25T15:09:12;9.20;99.90
36594;DHT22;22603;47.900;8.146;2024-03-25T15:11:57;9.10;99.90
36594;DHT22;22603;47.900;8.146;2024-03-25T15:14:42;9.00;99.90
36594;DHT22;22603;47.900;8.146;2024-03-25T15:17:27;9.40;99.90
36594;DHT22;22603;47.900;8.146;2024-03-25T15:20:12;9.40;99.90
36594;DHT22;22603;47.900;8.146;2024-03-25T15:22:56;9.60;99.90
36594;DHT22;22603;47.900;8.146;2024-03-25T15:25:42;9.40;99.90
36594;DHT22;22603;47.900;8.146;2024-03-25T15:28:27;9.00;99.90
36594;DHT22;22603;47.900;8.146;2024-03-25T15:31:12;8.70;99.90
36594;DHT22;22603;47.900;8.146;2024-03-25T15:33:57;9.10;99.90
36594;DHT22;22603;47.900;8.146;2024-03-25T15:36:41;9.10;99.90
36594;DHT22;22603;47.900;8.146;2024-03-25T15:39:26;9.10;99.90
36594;DHT22;22603;47.900;8.146;2024-03-25T15:42:12;9.40;99.90
36594;DHT22;22603;47.900;8.146;2024-03-25T15:44:57;9.00;99.90
36594;DHT22;22603;47.900;8.146;2024-03-25T15:47:42;8.80;99.90
36594;DHT22;22603;47.900;8.146;2024-03-25T15:50:26;8.30;99.90
36594;DHT22;22603;47.900;8.146;2024-03-25T15:53:11;8.60;99.90
36594;DHT22;22603;47.900;8.146;2024-03-25T15:55:56;8.80;99.90
36594;DHT22;22603;47.900;8.146;2024-03-25T15:58:42;8.60;99.90
36594;DHT22;22603;47.900;8.146;2024-03-25T16:01:27;8.60;99.90
36594;DHT22;22603;47.900;8.146;2024-03-25T16:04:12;8.60;99.90
36594;DHT22;22603;47.900;8.146;2024-03-25T16:06:56;9.00;99.90
36594;DHT22;22603;47.900;8.146;2024-03-25T16:09:41;9.10;99.90
36594;DHT22;22603;47.900;8.146;2024-03-25T16:12:26;9.10;99.90
36594;DHT22;22603;47.900;8.146;2024-03-25T16:15:12;9.10;99.90
36594;DHT22;22603;47.900;8.146;2024-03-25T16:17:58;9.00;99.90
36594;DHT22;22603;47.900;8.146;2024-03-25T16:20:42;9.10;99.90
36594;DHT22;22603;47.900;8.146;2024-03-25T16:23:27;9.00;99.90
36594;DHT22;22603;47.900;8.146;2024-03-25T16:26:12;8.90;99.90
36594;DHT22;22603;47.900;8.146;2024-03-25T16:28:57;8.60;99.90
36594;DHT22;22603;47.900;8.146;2024-03-25T16:31:43;8.60;99.90
36594;DHT22;22603;47.900;8.146;2024-03-25T16:34:28;8.40;99.90
36594;DHT22;22603;47.900;8.146;2024-03-25T16:37:13;8.40;99.90
36594;DHT22;22603;47.900;8.146;2024-03-25T16:39:58;8.30;99.90
36594;DHT22;22603;47.900;8.146;2024-03-25T16:42:43;8.30;99.90
36594;DHT22;22603;47.900;8.146;2024-03-25T16:45:27;8.30;99.90
36594;DHT22;22603;47.900;8.146;2024-03-25T16:48:13;8.10;99.90
36594;DHT22;22603;47.900;8.146;2024-03-25T16:50:58;8.10;99.90
36594;DHT22;22603;47.900;8.146;2024-03-25T16:53:43;8.00;99.90
36594;DHT22;22603;47.900;8.146;2024-03-25T16:56:28;7.90;99.90
36594;DHT22;22603;47.900;8.146;2024-03-25T16:59:14;7.90;99.90
36594;DHT22;22603;47.900;8.146;2024-03-25T17:01:59;7.80;99.90
36594;DHT22;22603;47.900;8.146;2024-03-25T17:04:45;7.80;99.90
36594;DHT22;22603;47.900;8.146;2024-03-25T17:07:30;7.70;99.90
36594;DHT22;22603;47.900;8.146;2024-03-25T17:10:14;7.70;99.90
36594;DHT22;22603;47.900;8.146;2024-03-25T17:12:59;7.60;99.90
36594;DHT22;22603;47.900;8.146;2024-03-25T17:15:44;7.50;99.90
36594;DHT22;22603;47.900;8.146;2024-03-25T17:18:29;7.50;99.90
36594;DHT22;22603;47.900;8.146;2024-03-25T17:21:14;7.40;99.90
36594;DHT22;22603;47.900;8.146;2024-03-25T17:24:00;7.30;99.90
36594;DHT22;22603;47.900;8.146;2024-03-25T17:26:45;7.10;99.90
36594;DHT22;22603;47.900;8.146;2024-03-25T17:29:30;7.10;99.90